Time;durP1;ratioP1;P1;durP2;ratioP2;P2;SDS_P1;SDS_P2;PMS_P1;PMS_P2;Temp;Humidity;BMP_temperature;BMP_pressure;BME280_temperature;BME280_humidity;BME280_pressure;Samples;Min_cycle;Max_cycle;Signal;HPM_P1;HPM_P2
2020/12/12 00:01:18;;;;;;;14.77;12.63;;;5.60;99.90;;;;;;5047269;28;20637;-75
2020/12/12 00:03:44;;;;;;;13.40;11.47;;;5.60;99.90;;;;;;5047688;28;20182;-75
2020/12/12 00:06:09;;;;;;;15.13;12.13;;;5.50;99.90;;;;;;5046584;28;20183;-75
2020/12/12 00:08:36;;;;;;;12.93;11.43;;;5.50;99.90;;;;;;5047379;28;20206;-74
2020/12/12 00:11:02;;;;;;;15.80;12.10;;;5.50;99.90;;;;;;5047114;28;20221;-76
2020/12/12 00:13:27;;;;;;;13.90;12.50;;;5.60;99.90;;;;;;5047930;28;20457;-75
2020/12/12 00:15:53;;;;;;;14.63;12.93;;;5.60;99.90;;;;;;5047399;28;20194;-74
2020/12/12 00:18:18;;;;;;;15.17;12.57;;;5.60;99.90;;;;;;5047115;28;20228;-75
2020/12/12 00:20:44;;;;;;;15.50;13.00;;;5.60;99.90;;;;;;5046963;28;20213;-78
2020/12/12 00:23:09;;;;;;;14.97;12.97;;;5.60;99.90;;;;;;5046094;28;20174;-75
2020/12/12 00:25:35;;;;;;;15.40;12.37;;;5.60;99.90;;;;;;5045791;28;20181;-76
2020/12/12 00:28:00;;;;;;;13.37;11.37;;;5.50;99.90;;;;;;5047281;28;20206;-75
2020/12/12 00:30:26;;;;;;;13.70;11.07;;;5.40;99.90;;;;;;5046262;28;20189;-75
2020/12/12 00:32:51;;;;;;;14.63;12.43;;;5.50;99.90;;;;;;5046621;28;20473;-75
2020/12/12 00:35:17;;;;;;;13.00;11.60;;;5.50;99.90;;;;;;5047046;28;20197;-77
2020/12/12 00:37:43;;;;;;;13.17;11.70;;;5.50;99.90;;;;;;5042524;28;20676;-74
2020/12/12 00:40:08;;;;;;;17.83;11.40;;;5.50;99.90;;;;;;5042577;28;20213;-76
2020/12/12 00:42:34;;;;;;;12.53;11.17;;;5.60;99.90;;;;;;5047019;28;20264;-75
2020/12/12 00:45:00;;;;;;;13.73;12.23;;;5.70;99.90;;;;;;5046791;28;20190;-76
2020/12/12 00:47:25;;;;;;;15.43;12.30;;;5.50;99.90;;;;;;5046863;28;20205;-74
2020/12/12 00:49:51;;;;;;;14.00;11.60;;;5.50;99.90;;;;;;5045653;28;20606;-76
2020/12/12 00:52:16;;;;;;;16.37;11.87;;;5.60;99.90;;;;;;5046365;28;20217;-75
2020/12/12 00:54:42;;;;;;;13.60;11.67;;;5.50;99.90;;;;;;5046456;28;20675;-76
2020/12/12 00:57:09;;;;;;;12.23;10.60;;;5.50;99.90;;;;;;5045422;28;20312;-75
2020/12/12 00:59:35;;;;;;;16.20;13.03;;;5.50;99.90;;;;;;5045613;28;20611;-76
2020/12/12 01:02:00;;;;;;;15.23;11.53;;;5.60;99.90;;;;;;5046412;28;20421;-74
2020/12/12 01:04:26;;;;;;;16.70;13.37;;;5.70;99.90;;;;;;5045137;28;20209;-76
2020/12/12 01:06:52;;;;;;;14.53;12.00;;;5.70;99.90;;;;;;5045341;28;20183;-73
2020/12/12 01:09:17;;;;;;;14.77;10.83;;;5.80;99.90;;;;;;5046792;28;20297;-75
2020/12/12 01:11:43;;;;;;;12.87;11.20;;;5.70;99.90;;;;;;5046270;28;20676;-75
2020/12/12 01:14:08;;;;;;;13.67;12.13;;;5.60;99.90;;;;;;5046594;28;20186;-75
2020/12/12 01:16:34;;;;;;;12.80;11.47;;;5.60;99.90;;;;;;5046119;28;20276;-74
2020/12/12 01:19:00;;;;;;;14.47;12.10;;;5.50;99.90;;;;;;5046802;28;20228;-74
2020/12/12 01:21:25;;;;;;;13.93;11.07;;;5.60;99.90;;;;;;5045855;28;20210;-75
2020/12/12 01:23:51;;;;;;;14.30;11.40;;;5.60;99.90;;;;;;5045628;28;20244;-75
2020/12/12 01:26:16;;;;;;;12.40;11.17;;;5.70;99.90;;;;;;5045848;28;20213;-73
2020/12/12 01:28:42;;;;;;;11.70;10.50;;;5.60;99.90;;;;;;5046622;28;20207;-74
2020/12/12 01:31:14;;;;;;;15.40;12.13;;;5.50;99.90;;;;;;5045938;28;20252;-74
2020/12/12 01:33:40;;;;;;;14.23;11.40;;;5.70;99.90;;;;;;5045586;28;20187;-74
2020/12/12 01:36:07;;;;;;;12.70;11.20;;;5.60;99.90;;;;;;5045500;28;20428;-74
2020/12/12 01:38:34;;;;;;;12.90;10.43;;;5.60;99.90;;;;;;5046146;28;20441;-73
2020/12/12 01:40:59;;;;;;;14.50;11.80;;;5.60;99.90;;;;;;5045439;28;20477;-74
2020/12/12 01:43:25;;;;;;;13.77;12.00;;;5.60;99.90;;;;;;5044559;28;20788;-74
2020/12/12 01:45:50;;;;;;;16.00;10.80;;;5.60;99.90;;;;;;5045543;28;20285;-73
2020/12/12 01:48:16;;;;;;;14.33;11.67;;;5.50;99.90;;;;;;5046127;28;20210;-74
2020/12/12 01:50:42;;;;;;;15.80;12.47;;;5.60;99.90;;;;;;5045740;28;20201;-75
2020/12/12 01:53:08;;;;;;;13.17;11.50;;;5.60;99.90;;;;;;5043515;28;20433;-76
2020/12/12 01:55:35;;;;;;;16.20;12.83;;;5.60;99.90;;;;;;5044018;28;20197;-74
2020/12/12 01:58:01;;;;;;;12.03;10.40;;;5.60;99.90;;;;;;5045520;28;20724;-74
2020/12/12 02:00:26;;;;;;;14.23;10.80;;;5.50;99.90;;;;;;5045521;28;20472;-75
2020/12/12 02:02:55;;;;;;;14.30;11.00;;;5.50;99.90;;;;;;5045953;28;20182;-74
2020/12/12 02:05:39;;;;;;;14.80;12.37;;;5.50;99.90;;;;;;5043631;28;20751;-73
2020/12/12 02:08:15;;;;;;;13.20;10.93;;;5.60;99.90;;;;;;5045361;28;20524;-73
2020/12/12 02:10:43;;;;;;;13.70;11.17;;;5.60;99.90;;;;;;5045613;28;20441;-72
2020/12/12 02:13:10;;;;;;;17.37;12.30;;;5.70;99.90;;;;;;5045672;28;20436;-74
2020/12/12 02:15:37;;;;;;;15.43;11.70;;;5.70;99.90;;;;;;5044765;28;21059;-73
2020/12/12 02:18:04;;;;;;;12.70;11.37;;;5.70;99.90;;;;;;5045795;28;20545;-77
2020/12/12 02:20:30;;;;;;;13.77;11.00;;;5.60;99.90;;;;;;5045300;28;20468;-73
2020/12/12 02:22:56;;;;;;;14.23;11.97;;;5.70;99.90;;;;;;5043252;28;20793;-73
2020/12/12 02:25:22;;;;;;;14.17;12.20;;;5.70;99.90;;;;;;5044925;28;20191;-74
2020/12/12 02:27:51;;;;;;;15.70;12.40;;;5.60;99.90;;;;;;5045582;28;20444;-74
2020/12/12 02:30:19;;;;;;;13.90;10.83;;;5.60;99.90;;;;;;5045504;28;20515;-73
2020/12/12 02:32:44;;;;;;;14.13;11.60;;;5.60;99.90;;;;;;5045502;28;20873;-72
2020/12/12 02:35:10;;;;;;;12.63;10.70;;;5.60;99.90;;;;;;5045599;28;20435;-73
2020/12/12 02:37:36;;;;;;;11.80;10.50;;;5.60;99.90;;;;;;5045437;28;20303;-73
2020/12/12 02:40:03;;;;;;;13.47;11.73;;;5.60;99.90;;;;;;5045013;28;20198;-73
2020/12/12 02:42:28;;;;;;;12.23;10.93;;;5.70;99.90;;;;;;5045788;28;20663;-73
2020/12/12 02:44:54;;;;;;;14.63;11.10;;;5.70;99.90;;;;;;5044518;28;20436;-73
2020/12/12 02:47:20;;;;;;;10.97;9.90;;;5.70;99.90;;;;;;5044753;28;20202;-73
2020/12/12 02:50:10;;;;;;;11.80;10.60;;;5.70;99.90;;;;;;5045654;28;20440;-73
2020/12/12 02:52:40;;;;;;;11.80;10.43;;;5.70;99.90;;;;;;5044241;28;20428;-74
2020/12/12 02:55:07;;;;;;;12.77;10.50;;;5.70;99.90;;;;;;5044933;28;20425;-74
2020/12/12 02:57:34;;;;;;;11.67;10.47;;;5.70;99.90;;;;;;5047728;28;20444;-73
2020/12/12 03:00:01;;;;;;;11.17;9.97;;;5.80;99.90;;;;;;5048377;28;20554;-74
2020/12/12 03:02:26;;;;;;;11.63;10.53;;;5.90;99.90;;;;;;5046431;28;20940;-75
2020/12/12 03:04:52;;;;;;;13.33;11.00;;;5.90;99.90;;;;;;5042994;28;20444;-74
2020/12/12 03:07:18;;;;;;;12.77;10.53;;;5.90;99.90;;;;;;5044902;28;20206;-76
2020/12/12 03:09:44;;;;;;;14.50;11.43;;;5.80;99.90;;;;;;5044198;28;20182;-75
2020/12/12 03:12:10;;;;;;;14.13;11.10;;;5.80;99.90;;;;;;5044820;28;20955;-76
2020/12/12 03:14:35;;;;;;;12.33;10.03;;;5.70;99.90;;;;;;5044584;28;20725;-76
2020/12/12 03:17:01;;;;;;;12.73;10.40;;;5.70;99.90;;;;;;5044426;28;20206;-76
2020/12/12 03:19:26;;;;;;;14.03;12.10;;;5.70;99.90;;;;;;5044362;28;20749;-75
2020/12/12 03:21:52;;;;;;;12.97;11.17;;;5.60;99.90;;;;;;5044620;28;20197;-77
2020/12/12 03:24:17;;;;;;;14.20;11.97;;;5.70;99.90;;;;;;5044299;28;20197;-76
2020/12/12 03:26:43;;;;;;;12.70;11.17;;;5.60;99.90;;;;;;5042977;28;20210;-73
2020/12/12 03:29:08;;;;;;;16.67;11.30;;;5.70;99.90;;;;;;5045035;28;20627;-75
2020/12/12 03:31:34;;;;;;;11.97;10.47;;;5.70;99.90;;;;;;5042850;28;20200;-77
2020/12/12 03:33:59;;;;;;;14.07;10.87;;;5.60;99.90;;;;;;5045513;28;20194;-76
2020/12/12 03:36:26;;;;;;;12.43;10.80;;;5.60;99.90;;;;;;5047880;28;20194;-73
2020/12/12 03:38:51;;;;;;;13.87;9.90;;;5.60;99.90;;;;;;5048494;28;20591;-73
2020/12/12 03:41:17;;;;;;;13.23;11.67;;;5.60;99.90;;;;;;5046910;28;20452;-72
2020/12/12 03:43:42;;;;;;;12.73;11.17;;;5.60;99.90;;;;;;5047861;28;20183;-73
2020/12/12 03:46:08;;;;;;;11.40;10.17;;;5.70;99.90;;;;;;5047582;28;20605;-73
2020/12/12 03:48:34;;;;;;;11.13;9.93;;;5.70;99.90;;;;;;5048107;28;20289;-75
2020/12/12 03:50:59;;;;;;;12.87;11.37;;;5.70;99.90;;;;;;5048163;28;20433;-75
2020/12/12 03:53:25;;;;;;;14.43;11.60;;;5.70;99.90;;;;;;5047423;28;20244;-74
2020/12/12 03:55:50;;;;;;;14.07;11.90;;;5.80;99.90;;;;;;5047998;28;20583;-75
2020/12/12 03:58:16;;;;;;;12.73;11.43;;;5.80;99.90;;;;;;5048256;28;20674;-75
2020/12/12 04:00:41;;;;;;;11.83;10.60;;;5.90;99.90;;;;;;5047638;28;20218;-74
2020/12/12 04:03:07;;;;;;;11.93;10.73;;;5.90;99.90;;;;;;5048193;28;20237;-74
2020/12/12 04:05:33;;;;;;;13.50;12.10;;;5.90;99.90;;;;;;5045608;28;20187;-74
2020/12/12 04:07:58;;;;;;;12.40;11.00;;;5.90;99.90;;;;;;5046725;28;20616;-77
2020/12/12 04:10:24;;;;;;;12.50;11.10;;;5.90;99.90;;;;;;5044998;28;20647;-74
2020/12/12 04:12:49;;;;;;;12.27;10.97;;;6.00;99.90;;;;;;5043411;28;20540;-75
2020/12/12 04:15:15;;;;;;;11.80;10.53;;;5.90;99.90;;;;;;5045499;28;20197;-70
2020/12/12 04:17:40;;;;;;;13.40;11.53;;;5.80;99.90;;;;;;5047473;28;20218;-74
2020/12/12 04:20:06;;;;;;;12.00;10.13;;;5.80;99.90;;;;;;5047349;28;20233;-75
2020/12/12 04:22:31;;;;;;;15.20;11.83;;;5.80;99.90;;;;;;5047380;28;20270;-75
2020/12/12 04:24:57;;;;;;;12.93;11.53;;;5.90;99.90;;;;;;5045401;28;20274;-73
2020/12/12 04:27:22;;;;;;;12.43;10.80;;;5.90;99.90;;;;;;5047119;28;20230;-73
2020/12/12 04:29:48;;;;;;;13.30;11.50;;;5.90;99.90;;;;;;5047853;28;20208;-73
2020/12/12 04:32:14;;;;;;;13.07;11.10;;;6.00;99.90;;;;;;5047555;28;20194;-75
2020/12/12 04:34:39;;;;;;;12.73;10.43;;;6.00;99.90;;;;;;5045735;28;20649;-74
2020/12/12 04:37:05;;;;;;;15.00;11.90;;;5.90;99.90;;;;;;5045713;28;20304;-75
2020/12/12 04:39:30;;;;;;;12.23;10.90;;;5.90;99.90;;;;;;5047187;28;20213;-74
2020/12/12 04:41:56;;;;;;;12.83;10.53;;;5.90;99.90;;;;;;5047403;28;20186;-75
2020/12/12 04:44:23;;;;;;;17.33;11.97;;;6.00;99.90;;;;;;5045981;28;20324;-75
2020/12/12 04:46:50;;;;;;;13.93;11.80;;;5.90;99.90;;;;;;5045841;28;20225;-74
2020/12/12 04:49:16;;;;;;;13.87;11.97;;;5.90;99.90;;;;;;5047045;28;20901;-74
2020/12/12 04:51:46;;;;;;;11.83;10.13;;;5.90;99.90;;;;;;5041579;28;20581;-73
2020/12/12 04:54:18;;;;;;;14.37;11.20;;;5.90;99.90;;;;;;5044759;28;20429;-74
2020/12/12 04:56:45;;;;;;;13.70;10.50;;;5.90;99.90;;;;;;5046155;28;20798;-74
2020/12/12 04:59:12;;;;;;;10.93;9.77;;;5.90;99.90;;;;;;5047078;28;20444;-75
2020/12/12 05:01:38;;;;;;;13.07;10.53;;;5.90;99.90;;;;;;5045741;28;20551;-74
2020/12/12 05:04:06;;;;;;;12.97;11.07;;;5.90;99.90;;;;;;5045189;28;20884;-72
2020/12/12 05:06:31;;;;;;;12.60;10.57;;;5.90;99.90;;;;;;5040793;28;20182;-73
2020/12/12 05:08:57;;;;;;;15.97;11.07;;;5.90;99.90;;;;;;5045113;28;20449;-73
2020/12/12 05:11:23;;;;;;;12.50;11.00;;;5.80;99.90;;;;;;5046643;28;20175;-74
2020/12/12 05:13:49;;;;;;;12.77;10.43;;;5.90;99.90;;;;;;5047137;28;20190;-74
2020/12/12 05:16:15;;;;;;;11.30;10.10;;;5.90;99.90;;;;;;5045876;28;20429;-75
2020/12/12 05:18:42;;;;;;;13.23;11.93;;;5.90;99.90;;;;;;5044616;28;20351;-75
2020/12/12 05:21:09;;;;;;;11.63;9.20;;;5.90;99.90;;;;;;5046400;28;20225;-73
2020/12/12 05:23:34;;;;;;;11.60;9.50;;;5.90;99.90;;;;;;5046104;28;20483;-73
2020/12/12 05:26:00;;;;;;;13.73;11.10;;;5.90;99.90;;;;;;5046714;28;20441;-75
2020/12/12 05:28:25;;;;;;;11.30;10.10;;;5.90;99.90;;;;;;5045741;28;20210;-74
2020/12/12 05:30:53;;;;;;;11.83;9.90;;;6.00;99.90;;;;;;5046340;28;20278;-74
2020/12/12 05:33:24;;;;;;;11.90;10.33;;;6.10;99.90;;;;;;5046171;28;20218;-73
2020/12/12 05:35:50;;;;;;;13.13;10.63;;;6.00;99.90;;;;;;5045775;28;20429;-74
2020/12/12 05:38:16;;;;;;;13.30;10.80;;;6.00;99.90;;;;;;5045567;28;20928;-73
2020/12/12 05:40:44;;;;;;;14.33;11.43;;;6.00;99.90;;;;;;5045796;28;20564;-74
2020/12/12 05:43:12;;;;;;;13.47;11.50;;;6.00;99.90;;;;;;5046013;28;20459;-75
2020/12/12 05:45:39;;;;;;;13.57;10.57;;;6.00;99.90;;;;;;5045668;28;20459;-75
2020/12/12 05:48:10;;;;;;;12.53;10.57;;;6.00;99.90;;;;;;5045306;28;20486;-74
2020/12/12 05:50:36;;;;;;;14.67;12.30;;;5.90;99.90;;;;;;5043447;28;20880;-74
2020/12/12 05:53:02;;;;;;;14.20;11.30;;;5.90;99.90;;;;;;5042033;28;20433;-74
2020/12/12 05:55:28;;;;;;;13.53;10.83;;;6.00;99.90;;;;;;5042596;28;20447;-74
2020/12/12 05:57:55;;;;;;;12.73;11.40;;;6.00;99.90;;;;;;5044916;28;20214;-75
2020/12/12 06:00:21;;;;;;;11.87;10.57;;;6.00;99.90;;;;;;5045218;28;20472;-74
2020/12/12 06:02:56;;;;;;;11.80;10.60;;;6.00;99.90;;;;;;5045212;28;20437;-73
2020/12/12 06:05:29;;;;;;;12.63;11.27;;;6.10;99.90;;;;;;5045171;28;20462;-73
2020/12/12 06:07:57;;;;;;;12.20;10.03;;;6.00;99.90;;;;;;5045935;28;20929;-73
2020/12/12 06:10:34;;;;;;;13.20;10.57;;;6.10;99.90;;;;;;5045159;28;20437;-74
2020/12/12 06:13:06;;;;;;;13.83;10.60;;;6.00;99.90;;;;;;5045762;28;20485;-74
2020/12/12 06:15:40;;;;;;;15.93;11.87;;;6.10;99.90;;;;;;5043909;28;20461;-74
2020/12/12 06:18:25;;;;;;;13.87;11.17;;;6.10;99.90;;;;;;5045219;28;20480;-74
2020/12/12 06:20:52;;;;;;;12.73;9.63;;;6.10;99.90;;;;;;5045301;28;20468;-75
2020/12/12 06:23:18;;;;;;;11.83;9.80;;;6.10;99.90;;;;;;5044945;28;20898;-74
2020/12/12 06:25:44;;;;;;;11.70;10.50;;;6.10;99.90;;;;;;5043353;28;20433;-73
2020/12/12 06:28:24;;;;;;;11.60;10.27;;;6.00;99.90;;;;;;5044816;28;20502;-72
2020/12/12 06:30:51;;;;;;;11.60;10.40;;;6.10;99.90;;;;;;5047400;28;20432;-75
2020/12/12 06:33:17;;;;;;;11.57;9.70;;;6.10;99.90;;;;;;5047486;28;20475;-74
2020/12/12 06:35:42;;;;;;;14.23;12.47;;;6.10;99.90;;;;;;5045753;28;20457;-73
2020/12/12 06:38:20;;;;;;;14.03;10.03;;;6.10;99.90;;;;;;5044905;28;20275;-73
2020/12/12 06:40:47;;;;;;;11.33;10.13;;;6.00;99.90;;;;;;5043400;28;20221;-72
2020/12/12 06:43:54;;;;;;;11.60;10.00;;;6.00;99.90;;;;;;5043082;28;20433;-74
2020/12/12 06:46:19;;;;;;;12.03;9.87;;;6.10;99.90;;;;;;5001688;28;20864;-75
2020/12/12 06:48:45;;;;;;;13.10;10.30;;;6.10;99.90;;;;;;5036855;28;20464;-74
2020/12/12 06:51:10;;;;;;;11.07;9.37;;;6.20;99.90;;;;;;5022032;28;20260;-74
2020/12/12 06:53:36;;;;;;;10.33;9.17;;;6.20;99.90;;;;;;5005379;28;20218;-74
2020/12/12 06:56:12;;;;;;;10.60;9.33;;;6.10;99.90;;;;;;5038176;28;20199;-73
2020/12/12 06:58:39;;;;;;;10.90;9.60;;;6.20;99.90;;;;;;5038226;28;20214;-75
2020/12/12 07:01:27;;;;;;;11.90;10.23;;;6.20;99.90;;;;;;5005105;28;20489;-73
2020/12/12 07:04:06;;;;;;;10.73;9.63;;;6.20;99.90;;;;;;5005766;28;20525;-75
2020/12/12 07:06:33;;;;;;;12.10;10.07;;;6.30;99.90;;;;;;5022149;28;20539;-77
2020/12/12 07:09:07;;;;;;;11.60;10.07;;;6.20;99.90;;;;;;5007064;28;20543;-74
2020/12/12 07:11:33;;;;;;;10.63;9.10;;;6.30;99.90;;;;;;5027191;28;20441;-74
2020/12/12 07:14:00;;;;;;;13.33;10.40;;;6.30;99.90;;;;;;5026016;28;20443;-75
2020/12/12 07:16:27;;;;;;;14.97;10.40;;;6.20;99.90;;;;;;5024766;28;20816;-72
2020/12/12 07:18:53;;;;;;;10.80;9.80;;;6.40;99.90;;;;;;5026229;28;20501;-73
2020/12/12 07:21:19;;;;;;;11.30;9.20;;;6.40;99.90;;;;;;5010490;28;20556;-73
2020/12/12 07:23:46;;;;;;;10.53;9.43;;;6.50;99.90;;;;;;5048233;28;20820;-73
2020/12/12 07:26:12;;;;;;;11.73;9.20;;;6.60;99.90;;;;;;5046579;28;20433;-73
2020/12/12 07:28:38;;;;;;;11.10;9.70;;;6.50;99.90;;;;;;5048574;28;20513;-74
2020/12/12 07:31:05;;;;;;;10.67;9.57;;;6.60;99.90;;;;;;5047088;28;20701;-76
2020/12/12 07:33:31;;;;;;;10.37;9.27;;;6.60;99.90;;;;;;5046441;28;20820;-76
2020/12/12 07:35:57;;;;;;;11.03;9.30;;;6.50;99.90;;;;;;5045949;28;20635;-76
2020/12/12 07:38:23;;;;;;;9.30;8.40;;;6.50;99.90;;;;;;5047794;28;20472;-76
2020/12/12 07:40:49;;;;;;;9.30;8.40;;;6.50;99.90;;;;;;5048588;28;20466;-77
2020/12/12 07:43:15;;;;;;;11.03;9.90;;;6.50;99.90;;;;;;5048479;28;20509;-75
2020/12/12 07:48:12;;;;;;;10.47;9.47;;;6.60;99.90;;;;;;5048574;28;20531;-70
2020/12/12 07:50:38;;;;;;;12.27;9.53;;;6.60;99.90;;;;;;5048373;28;20440;-76
2020/12/12 07:53:08;;;;;;;13.93;9.60;;;6.60;99.90;;;;;;5046354;28;20194;-73
2020/12/12 07:55:40;;;;;;;11.17;10.03;;;6.60;99.90;;;;;;5047057;28;20799;-72
2020/12/12 07:58:05;;;;;;;12.07;9.50;;;6.60;99.90;;;;;;5046679;28;20822;-72
2020/12/12 08:00:31;;;;;;;11.77;9.77;;;6.60;99.90;;;;;;5047947;28;20464;-73
2020/12/12 08:02:57;;;;;;;12.47;9.73;;;6.80;99.90;;;;;;5048077;28;20183;-71
2020/12/12 08:05:23;;;;;;;10.43;9.40;;;6.70;99.90;;;;;;5047926;28;20214;-74
2020/12/12 08:07:50;;;;;;;11.10;9.43;;;6.70;99.90;;;;;;5048388;28;20489;-74
2020/12/12 08:10:16;;;;;;;9.40;8.40;;;6.80;99.90;;;;;;5046338;28;20437;-72
2020/12/12 08:12:43;;;;;;;10.87;9.30;;;6.80;99.90;;;;;;5047590;28;20442;-76
2020/12/12 08:15:23;;;;;;;9.70;8.70;;;6.80;99.90;;;;;;5047642;28;20182;-72
2020/12/12 08:17:49;;;;;;;11.30;10.10;;;6.70;99.90;;;;;;5047483;28;20868;-72
2020/12/12 08:20:17;;;;;;;9.63;8.50;;;6.80;99.90;;;;;;5046007;28;20468;-75
2020/12/12 08:22:46;;;;;;;12.90;10.70;;;6.80;99.90;;;;;;5046056;28;20182;-73
2020/12/12 08:25:12;;;;;;;12.20;10.20;;;6.90;99.90;;;;;;5045802;28;20433;-74
2020/12/12 08:27:38;;;;;;;11.80;10.50;;;6.90;99.90;;;;;;5046907;28;20513;-74
2020/12/12 08:30:06;;;;;;;10.60;9.03;;;6.80;99.90;;;;;;5047854;28;20214;-77
2020/12/12 08:32:40;;;;;;;12.43;9.93;;;6.90;99.90;;;;;;5046308;28;20448;-75
2020/12/12 08:35:29;;;;;;;11.37;10.17;;;6.90;99.90;;;;;;5046728;28;20520;-74
2020/12/12 08:38:06;;;;;;;11.93;10.83;;;6.90;99.90;;;;;;5037301;28;20456;-74
2020/12/12 08:40:48;;;;;;;11.50;9.73;;;6.90;99.90;;;;;;5046151;28;20465;-76
2020/12/12 08:43:16;;;;;;;9.83;8.80;;;6.80;99.90;;;;;;5045927;28;20527;-75
2020/12/12 08:46:02;;;;;;;12.00;10.80;;;6.80;99.90;;;;;;5046706;28;20425;-73
2020/12/12 08:48:35;;;;;;;10.43;9.43;;;6.90;99.90;;;;;;5045482;28;20460;-73
2020/12/12 08:51:02;;;;;;;11.10;9.40;;;6.80;99.90;;;;;;5045817;28;20908;-73
2020/12/12 08:53:41;;;;;;;11.47;9.87;;;6.80;99.90;;;;;;5047383;28;21112;-73
2020/12/12 08:56:11;;;;;;;11.10;9.47;;;6.80;99.90;;;;;;5045068;28;20433;-73
2020/12/12 08:58:41;;;;;;;14.23;9.73;;;6.90;99.90;;;;;;5045270;28;20457;-73
2020/12/12 09:01:19;;;;;;;12.93;10.50;;;7.00;99.90;;;;;;5045778;28;20510;-73
2020/12/12 09:03:50;;;;;;;12.17;9.30;;;7.00;99.90;;;;;;5046075;28;20437;-72
2020/12/12 09:06:16;;;;;;;10.97;9.87;;;7.00;99.90;;;;;;5045878;28;20427;-74
2020/12/12 09:08:42;;;;;;;15.10;10.30;;;7.00;99.90;;;;;;5046155;28;20453;-73
2020/12/12 09:11:13;;;;;;;15.23;10.20;;;6.90;99.90;;;;;;5045444;28;20178;-73
2020/12/12 09:13:41;;;;;;;10.93;9.47;;;6.90;99.90;;;;;;5045618;28;20187;-75
2020/12/12 09:16:12;;;;;;;12.63;9.73;;;7.00;99.90;;;;;;5046686;28;20440;-71
2020/12/12 09:18:45;;;;;;;11.43;10.33;;;7.00;99.90;;;;;;5043549;28;20471;-74
2020/12/12 09:21:12;;;;;;;14.10;11.27;;;6.90;99.90;;;;;;5045943;28;20468;-75
2020/12/12 09:23:38;;;;;;;11.80;10.60;;;7.00;99.90;;;;;;5047294;28;20500;-74
2020/12/12 09:26:04;;;;;;;12.10;10.17;;;7.00;99.90;;;;;;5046577;28;20508;-73
2020/12/12 09:28:30;;;;;;;10.43;9.43;;;7.10;99.90;;;;;;5044804;28;20516;-75
2020/12/12 09:30:56;;;;;;;14.40;11.33;;;7.10;99.90;;;;;;5046763;28;20428;-72
2020/12/12 09:33:22;;;;;;;11.40;10.20;;;7.20;99.90;;;;;;5045509;28;20431;-75
2020/12/12 09:35:47;;;;;;;12.97;10.50;;;7.10;99.90;;;;;;5045603;28;20186;-74
2020/12/12 09:38:13;;;;;;;13.33;11.13;;;7.20;99.90;;;;;;5044934;28;20708;-74
2020/12/12 09:40:39;;;;;;;11.50;9.67;;;7.00;99.90;;;;;;5047101;28;20199;-74
2020/12/12 09:43:04;;;;;;;11.10;10.00;;;6.90;99.90;;;;;;5045106;28;20360;-75
2020/12/12 09:45:30;;;;;;;15.27;12.10;;;6.80;99.90;;;;;;5044206;28;20182;-74
2020/12/12 09:47:56;;;;;;;13.30;11.17;;;6.80;99.90;;;;;;5046521;28;20213;-75
2020/12/12 09:50:33;;;;;;;12.63;10.23;;;7.00;99.90;;;;;;5045993;28;20195;-74
2020/12/12 09:52:59;;;;;;;13.20;11.20;;;6.90;99.90;;;;;;5048997;28;20189;-74
2020/12/12 09:55:25;;;;;;;14.77;13.00;;;6.90;99.90;;;;;;5048041;28;20844;-75
2020/12/12 09:57:51;;;;;;;15.03;12.57;;;7.00;99.90;;;;;;5046197;28;20449;-74
2020/12/12 10:00:16;;;;;;;12.83;11.07;;;7.00;99.90;;;;;;5044997;28;20872;-74
2020/12/12 10:02:42;;;;;;;16.80;11.90;;;7.00;99.90;;;;;;5045547;28;20673;-76
2020/12/12 10:05:07;;;;;;;15.30;11.67;;;7.10;99.90;;;;;;5045696;28;20218;-73
2020/12/12 10:07:33;;;;;;;12.87;11.17;;;7.10;99.90;;;;;;5045250;28;20217;-74
2020/12/12 10:09:59;;;;;;;13.87;12.17;;;7.20;99.90;;;;;;5045480;28;20431;-75
2020/12/12 10:12:24;;;;;;;15.93;12.00;;;7.20;99.90;;;;;;5044497;28;20285;-76
2020/12/12 10:14:50;;;;;;;10.57;9.47;;;7.30;99.90;;;;;;5045347;28;20226;-74
2020/12/12 10:17:15;;;;;;;9.10;8.17;;;7.40;99.90;;;;;;5045025;28;20594;-75
2020/12/12 10:19:41;;;;;;;11.40;10.13;;;7.40;99.90;;;;;;5043793;28;20209;-72
2020/12/12 10:22:06;;;;;;;10.73;9.77;;;7.40;99.90;;;;;;5045558;28;20182;-74
2020/12/12 10:24:32;;;;;;;9.50;8.60;;;7.50;99.90;;;;;;5045549;28;20553;-73
2020/12/12 10:26:57;;;;;;;8.67;7.87;;;7.60;99.90;;;;;;5044715;28;20218;-75
2020/12/12 10:29:23;;;;;;;8.53;7.80;;;7.60;99.90;;;;;;5045629;28;20197;-74
2020/12/12 10:31:48;;;;;;;8.50;7.70;;;7.60;99.90;;;;;;5045654;28;20265;-75
2020/12/12 10:34:14;;;;;;;10.00;9.00;;;7.60;99.90;;;;;;5045672;28;20594;-72
2020/12/12 10:36:39;;;;;;;9.47;8.50;;;7.70;99.90;;;;;;5044483;28;20868;-71
2020/12/12 10:39:05;;;;;;;10.40;8.10;;;7.70;99.90;;;;;;5045538;28;20551;-73
2020/12/12 10:41:31;;;;;;;10.00;8.87;;;7.60;99.90;;;;;;5044857;28;20206;-73
2020/12/12 10:43:57;;;;;;;10.07;8.17;;;7.70;99.90;;;;;;5044970;28;20205;-73
2020/12/12 10:46:23;;;;;;;9.60;8.60;;;7.70;99.90;;;;;;5044844;28;20429;-74
2020/12/12 10:48:48;;;;;;;8.50;7.60;;;7.50;99.90;;;;;;5045135;28;20448;-73
2020/12/12 10:51:17;;;;;;;8.60;7.80;;;7.40;99.90;;;;;;5045562;28;20214;-73
2020/12/12 10:53:43;;;;;;;10.37;9.13;;;7.40;99.90;;;;;;5043734;28;20190;-74
2020/12/12 10:56:08;;;;;;;10.60;9.10;;;7.20;99.90;;;;;;5044802;28;20443;-75
2020/12/12 10:58:34;;;;;;;9.60;8.67;;;7.30;99.90;;;;;;5044915;28;20310;-73
2020/12/12 11:01:00;;;;;;;12.20;10.57;;;7.30;99.90;;;;;;5043649;28;21370;-73
2020/12/12 11:03:26;;;;;;;9.67;8.80;;;7.30;99.90;;;;;;5045287;28;20182;-73
2020/12/12 11:05:51;;;;;;;10.03;9.03;;;7.40;99.90;;;;;;5044531;28;20429;-73
2020/12/12 11:08:17;;;;;;;10.77;9.67;;;7.40;99.90;;;;;;5045053;28;20202;-73
2020/12/12 11:10:42;;;;;;;10.17;9.23;;;7.40;99.90;;;;;;5043870;28;20194;-76
2020/12/12 11:13:08;;;;;;;10.77;9.77;;;7.30;99.90;;;;;;5045128;28;20198;-76
2020/12/12 11:15:33;;;;;;;12.20;9.37;;;7.20;99.90;;;;;;5045399;28;20674;-73
2020/12/12 11:18:00;;;;;;;9.20;8.30;;;7.20;99.90;;;;;;5044655;28;20214;-74
2020/12/12 11:20:25;;;;;;;9.63;8.73;;;7.20;99.90;;;;;;5044985;28;20255;-76
2020/12/12 11:22:51;;;;;;;10.47;9.40;;;7.20;99.90;;;;;;5044652;28;20449;-75
2020/12/12 11:25:16;;;;;;;10.83;9.73;;;7.20;99.90;;;;;;5044669;28;20177;-71
2020/12/12 11:27:45;;;;;;;11.73;10.57;;;7.20;99.90;;;;;;5044665;28;20237;-73
2020/12/12 11:30:12;;;;;;;12.37;9.63;;;7.10;99.90;;;;;;5044507;28;20261;-73
2020/12/12 11:32:38;;;;;;;11.77;10.47;;;7.10;99.90;;;;;;5044775;28;20450;-73
2020/12/12 11:35:20;;;;;;;12.53;10.47;;;7.10;99.90;;;;;;5045105;28;20432;-73
2020/12/12 11:40:23;;;;;;;13.90;12.10;;;7.10;99.90;;;;;;5044480;28;20526;-73
2020/12/12 11:45:40;;;;;;;12.03;10.70;;;7.00;99.90;;;;;;5044655;28;20439;-72
2020/12/12 11:48:05;;;;;;;15.23;10.50;;;7.00;99.90;;;;;;5033468;28;20437;-74
2020/12/12 11:50:31;;;;;;;14.87;11.40;;;7.10;99.90;;;;;;5044465;28;20849;-74
2020/12/12 11:52:57;;;;;;;23.80;16.27;;;7.10;99.90;;;;;;5043742;28;20240;-74
2020/12/12 11:55:24;;;;;;;17.67;13.57;;;7.00;99.90;;;;;;5045013;28;20197;-73
2020/12/12 11:57:50;;;;;;;17.63;14.60;;;7.10;99.90;;;;;;5047834;28;20718;-74
2020/12/12 12:00:16;;;;;;;11.40;9.90;;;7.10;99.90;;;;;;5048062;28;20460;-76
2020/12/12 12:02:41;;;;;;;12.90;11.60;;;7.00;99.90;;;;;;5047686;28;20409;-75
2020/12/12 12:05:07;;;;;;;16.13;14.10;;;7.00;99.90;;;;;;5048335;28;20582;-77
2020/12/12 12:07:39;;;;;;;15.00;13.37;;;7.10;99.90;;;;;;5047762;28;20407;-74
2020/12/12 12:10:26;;;;;;;16.60;14.33;;;7.10;99.90;;;;;;5048599;28;20175;-74
2020/12/12 12:12:50;;;;;;;17.00;13.73;;;7.00;99.90;;;;;;5050431;28;20432;-73
2020/12/12 12:15:16;;;;;;;17.30;15.43;;;7.00;99.90;;;;;;5049898;28;20803;-71
2020/12/12 12:17:41;;;;;;;16.60;14.17;;;7.00;99.90;;;;;;5049984;28;20720;-75
2020/12/12 12:20:08;;;;;;;18.43;14.43;;;6.90;99.90;;;;;;5048698;28;20222;-72
2020/12/12 12:22:34;;;;;;;19.87;15.30;;;6.90;99.90;;;;;;5047479;28;20495;-76
2020/12/12 12:24:59;;;;;;;18.93;14.07;;;6.90;99.90;;;;;;5048285;28;20852;-75
2020/12/12 12:27:25;;;;;;;18.80;14.10;;;6.80;99.90;;;;;;5046948;28;20230;-74
2020/12/12 12:29:51;;;;;;;17.47;15.27;;;6.80;99.90;;;;;;5048172;28;20261;-74
2020/12/12 12:32:16;;;;;;;17.87;14.67;;;6.80;99.90;;;;;;5047270;28;20182;-73
2020/12/12 12:34:42;;;;;;;20.03;14.37;;;6.80;99.90;;;;;;5046666;28;20425;-75
2020/12/12 12:37:08;;;;;;;19.37;15.40;;;6.80;99.90;;;;;;5048158;28;20202;-74
2020/12/12 12:39:33;;;;;;;20.40;15.63;;;6.80;99.90;;;;;;5050548;28;20205;-73
2020/12/12 12:41:59;;;;;;;19.27;14.93;;;6.80;99.90;;;;;;5050836;28;20211;-73
2020/12/12 12:44:25;;;;;;;21.43;15.50;;;6.70;99.90;;;;;;5049640;28;20191;-76
2020/12/12 12:46:51;;;;;;;20.57;16.53;;;6.70;99.90;;;;;;5046296;28;20490;-74
2020/12/12 12:49:17;;;;;;;23.20;18.23;;;6.70;99.90;;;;;;5047536;28;20662;-73